createdAt,value
2024-01-24T00:01:11.032Z,4.53
2024-01-24T00:02:32.609Z,4.09
2024-01-24T00:03:53.885Z,4.03
2024-01-24T00:05:15.568Z,4.71
2024-01-24T00:06:37.786Z,5.92
2024-01-24T00:07:59.258Z,4.04
2024-01-24T00:09:20.421Z,4.20
2024-01-24T00:10:42.463Z,5.37
2024-01-24T00:12:04.558Z,5.38
2024-01-24T00:13:25.624Z,3.79
2024-01-24T00:14:47.259Z,5.53
2024-01-24T00:16:09.527Z,3.65
2024-01-24T00:17:31.156Z,4.70
2024-01-24T00:18:52.555Z,4.02
2024-01-24T00:20:15.942Z,4.38
2024-01-24T00:21:37.393Z,4.27
2024-01-24T00:22:59.004Z,4.32
2024-01-24T00:24:20.369Z,4.76
2024-01-24T00:25:43.127Z,7.24
2024-01-24T00:27:04.851Z,7.39
2024-01-24T00:28:27.034Z,5.17
2024-01-24T00:29:48.470Z,6.73
2024-01-24T00:31:09.667Z,5.16
2024-01-24T00:32:30.702Z,7.02
2024-01-24T00:33:52.185Z,6.98
2024-01-24T00:35:14.497Z,7.71
2024-01-24T00:36:36.768Z,5.92
2024-01-24T00:37:58.411Z,5.84
2024-01-24T00:39:19.864Z,5.94
2024-01-24T00:40:41.506Z,6.22
2024-01-24T00:42:03.533Z,6.34
2024-01-24T00:43:24.699Z,7.09
2024-01-24T00:44:48.817Z,5.42
2024-01-24T00:46:11.002Z,6.68
2024-01-24T00:47:32.444Z,5.42
2024-01-24T00:48:53.685Z,6.22
2024-01-24T00:50:18.271Z,7.68
2024-01-24T00:51:39.804Z,5.45
2024-01-24T00:53:04.127Z,5.13
2024-01-24T00:54:25.487Z,5.67
2024-01-24T00:55:47.520Z,5.88
2024-01-24T00:57:09.799Z,5.72
2024-01-24T00:58:31.115Z,6.38
2024-01-24T00:59:52.303Z,5.63
2024-01-24T01:01:15.185Z,6.35
2024-01-24T01:02:36.786Z,8.71
2024-01-24T01:03:58.034Z,5.61
2024-01-24T01:05:19.665Z,7.38
2024-01-24T01:06:41.258Z,5.07
2024-01-24T01:08:02.741Z,5.44
2024-01-24T01:09:24.049Z,6.62
2024-01-24T01:10:45.464Z,5.88
2024-01-24T01:12:06.850Z,5.49
2024-01-24T01:13:28.287Z,6.35
2024-01-24T01:14:49.798Z,6.92
2024-01-24T01:16:12.578Z,4.84
2024-01-24T01:17:34.037Z,5.02
2024-01-24T01:18:56.395Z,6.28
2024-01-24T01:21:39.652Z,6.17
2024-01-24T01:23:01.107Z,5.75
2024-01-24T01:24:22.643Z,5.15
2024-01-24T01:25:44.062Z,5.28
2024-01-24T01:27:06.810Z,4.87
2024-01-24T01:28:28.524Z,6.75
2024-01-24T01:29:50.021Z,6.87
2024-01-24T01:31:13.585Z,5.93
2024-01-24T01:33:55.572Z,5.85
2024-01-24T01:35:17.171Z,6.67
2024-01-24T01:36:39.669Z,8.07
2024-01-24T01:38:01.032Z,5.42
2024-01-24T01:39:22.316Z,6.61
2024-01-24T01:40:44.262Z,9.14
2024-01-24T01:42:06.601Z,5.90
2024-01-24T01:43:28.025Z,6.26
2024-01-24T01:44:49.677Z,7.52
2024-01-24T01:46:18.407Z,6.90
2024-01-24T01:47:39.840Z,5.67
2024-01-24T01:49:01.477Z,5.94
2024-01-24T01:50:23.257Z,6.76
2024-01-24T01:51:45.266Z,5.95
2024-01-24T01:53:06.705Z,6.52
2024-01-24T01:54:28.150Z,7.39
2024-01-24T01:55:49.671Z,6.31
2024-01-24T01:57:13.408Z,5.24
2024-01-24T01:58:34.610Z,6.59
2024-01-24T01:59:55.763Z,7.05
2024-01-24T02:01:18.765Z,6.91
2024-01-24T02:02:41.986Z,4.80
2024-01-24T02:04:05.869Z,5.86
2024-01-24T02:05:28.229Z,7.37
2024-01-24T02:06:51.302Z,8.94
2024-01-24T02:08:12.590Z,10.08
2024-01-24T02:09:34.870Z,9.55
2024-01-24T02:10:56.851Z,4.79
2024-01-24T02:12:20.710Z,4.91
2024-01-24T02:13:42.392Z,6.27
2024-01-24T02:15:05.078Z,4.81
2024-01-24T02:16:27.523Z,5.06
2024-01-24T02:17:48.634Z,4.80
2024-01-24T02:19:10.751Z,6.97
2024-01-24T02:20:32.182Z,6.63
2024-01-24T02:21:53.615Z,5.56
2024-01-24T02:23:15.061Z,5.88
2024-01-24T02:24:36.697Z,6.95
2024-01-24T02:25:57.748Z,7.21
2024-01-24T02:27:19.138Z,7.36
2024-01-24T02:28:40.589Z,5.83
2024-01-24T02:30:02.157Z,5.98
2024-01-24T02:31:23.484Z,6.18
2024-01-24T02:32:45.163Z,4.89
2024-01-24T02:34:07.273Z,5.45
2024-01-24T02:35:28.855Z,5.65
2024-01-24T02:36:50.840Z,5.68
2024-01-24T02:38:12.281Z,6.83
2024-01-24T02:39:33.688Z,5.03
2024-01-24T02:40:55.069Z,5.29
2024-01-24T02:42:16.235Z,4.47
2024-01-24T02:43:37.761Z,5.35
2024-01-24T02:44:59.270Z,4.45
2024-01-24T02:46:21.716Z,5.77
2024-01-24T02:47:42.960Z,5.28
2024-01-24T02:49:04.529Z,5.48
2024-01-24T02:50:26.414Z,6.17
2024-01-24T02:51:47.752Z,5.85
2024-01-24T02:53:09.663Z,9.12
2024-01-24T02:54:32.137Z,5.27
2024-01-24T02:55:53.735Z,7.20
2024-01-24T02:57:15.140Z,5.74
2024-01-24T02:58:36.479Z,6.27
2024-01-24T02:59:57.782Z,4.68
2024-01-24T03:01:20.937Z,6.26
2024-01-24T03:02:43.047Z,5.12
2024-01-24T03:04:04.770Z,6.84
2024-01-24T03:05:26.646Z,6.16
2024-01-24T03:06:48.370Z,5.54
2024-01-24T03:08:11.056Z,4.86
2024-01-24T03:09:32.851Z,6.61
2024-01-24T03:10:54.288Z,7.31
2024-01-24T03:12:15.447Z,5.38
2024-01-24T03:13:36.791Z,5.89
2024-01-24T03:14:58.139Z,4.98
2024-01-24T03:16:20.521Z,4.99
2024-01-24T03:17:42.044Z,6.62
2024-01-24T03:19:03.625Z,5.33
2024-01-24T03:20:25.435Z,4.49
2024-01-24T03:21:47.024Z,5.42
2024-01-24T03:23:08.689Z,5.32
2024-01-24T03:24:29.977Z,5.46
2024-01-24T03:25:53.559Z,5.67
2024-01-24T03:27:14.970Z,5.33
2024-01-24T03:28:36.515Z,5.78
2024-01-24T03:29:58.496Z,5.34
2024-01-24T03:31:19.577Z,8.96
2024-01-24T03:32:41.384Z,6.13
2024-01-24T03:34:02.688Z,5.13
2024-01-24T03:35:24.315Z,5.12
2024-01-24T03:36:46.143Z,5.19
2024-01-24T03:38:08.622Z,5.93
2024-01-24T03:39:30.810Z,4.70
2024-01-24T03:40:53.590Z,5.56
2024-01-24T03:42:14.873Z,5.15
2024-01-24T03:43:39.694Z,5.54
2024-01-24T03:45:00.996Z,5.97
2024-01-24T03:46:22.354Z,5.73
2024-01-24T03:47:45.590Z,6.18
2024-01-24T03:50:19.676Z,3.04
2024-01-24T03:51:41.513Z,4.38
2024-01-24T03:53:02.971Z,3.33
2024-01-24T03:54:24.276Z,5.76
2024-01-24T03:55:45.919Z,4.30
2024-01-24T03:57:07.493Z,3.83
2024-01-24T03:58:28.444Z,4.78
2024-01-24T03:59:49.945Z,3.83
2024-01-24T04:01:11.436Z,5.66
2024-01-24T04:02:33.008Z,5.03
2024-01-24T04:03:54.209Z,4.39
2024-01-24T04:05:16.305Z,6.41
2024-01-24T04:06:38.060Z,4.46
2024-01-24T04:07:59.130Z,5.72
2024-01-24T04:09:20.527Z,10.43
2024-01-24T04:10:43.084Z,4.31
2024-01-24T04:12:07.569Z,6.57
2024-01-24T04:13:29.933Z,4.12
2024-01-24T04:14:51.060Z,3.87
2024-01-24T04:16:13.230Z,3.41
2024-01-24T04:17:34.391Z,4.03
2024-01-24T04:18:56.097Z,4.22
2024-01-24T04:20:20.422Z,4.11
2024-01-24T04:21:43.572Z,3.92
2024-01-24T04:23:04.627Z,6.37
2024-01-24T04:24:25.842Z,4.03
2024-01-24T04:25:47.197Z,4.11
2024-01-24T04:27:08.732Z,5.76
2024-01-24T04:28:30.196Z,5.83
2024-01-24T04:29:51.573Z,7.99
2024-01-24T04:31:12.974Z,5.38
2024-01-24T04:32:34.233Z,4.81
2024-01-24T04:33:55.803Z,4.06
2024-01-24T04:35:18.449Z,4.61
2024-01-24T04:36:40.043Z,9.26
2024-01-24T04:38:01.146Z,6.70
2024-01-24T04:39:22.525Z,5.63
2024-01-24T04:40:43.937Z,4.84
2024-01-24T04:42:11.975Z,4.56
2024-01-24T04:43:31.194Z,5.48
2024-01-24T04:44:52.485Z,6.61
2024-01-24T04:46:15.234Z,4.08
2024-01-24T04:47:37.219Z,3.81
2024-01-24T04:49:01.306Z,6.33
2024-01-24T04:50:24.278Z,3.86
2024-01-24T04:51:46.014Z,4.60
2024-01-24T04:53:07.309Z,4.16
2024-01-24T04:54:32.022Z,5.75
2024-01-24T04:55:53.117Z,3.52
2024-01-24T04:57:14.616Z,4.76
2024-01-24T04:58:36.057Z,4.74
2024-01-24T04:59:58.716Z,4.27
2024-01-24T05:01:20.422Z,4.32
2024-01-24T05:02:41.517Z,4.17
2024-01-24T05:04:05.092Z,4.26
2024-01-24T05:06:48.283Z,4.38
2024-01-24T05:08:09.680Z,4.39
2024-01-24T05:09:32.342Z,5.01
2024-01-24T05:10:53.818Z,12.56
2024-01-24T05:12:15.107Z,8.84
2024-01-24T05:13:36.468Z,4.79
2024-01-24T05:14:58.309Z,5.14
2024-01-24T05:16:19.827Z,3.98
2024-01-24T05:17:41.357Z,4.14
2024-01-24T05:19:02.984Z,4.44
2024-01-24T05:20:25.755Z,5.07
2024-01-24T05:21:46.966Z,7.47
2024-01-24T05:23:09.289Z,3.63
2024-01-24T05:24:30.802Z,4.39
2024-01-24T05:25:52.375Z,3.97
2024-01-24T05:27:13.832Z,3.74
2024-01-24T05:28:35.206Z,4.83
2024-01-24T05:29:56.632Z,3.81
2024-01-24T05:31:18.165Z,4.61
2024-01-24T05:32:43.050Z,6.44
2024-01-24T05:34:04.692Z,4.88
2024-01-24T05:35:26.052Z,5.15
2024-01-24T05:36:48.144Z,4.22
2024-01-24T05:38:09.724Z,4.02
2024-01-24T05:39:31.129Z,5.21
2024-01-24T05:40:53.191Z,4.71
2024-01-24T05:42:14.566Z,7.06
2024-01-24T05:43:35.857Z,5.93
2024-01-24T05:44:57.291Z,7.44
2024-01-24T05:46:21.204Z,6.71
2024-01-24T05:47:42.809Z,6.76
2024-01-24T05:49:04.616Z,6.19
2024-01-24T05:50:26.626Z,4.93
2024-01-24T05:51:48.008Z,5.12
2024-01-24T05:53:09.357Z,6.63
2024-01-24T05:54:30.928Z,7.59
2024-01-24T05:55:54.225Z,12.09
2024-01-24T05:57:15.583Z,14.66
2024-01-24T05:58:37.426Z,8.20
2024-01-24T05:59:59.022Z,6.66
2024-01-24T06:01:20.441Z,8.96
2024-01-24T06:02:42.410Z,7.67
2024-01-24T06:04:04.586Z,11.32
2024-01-24T06:05:25.859Z,6.36
2024-01-24T06:06:47.828Z,14.08
2024-01-24T06:08:09.203Z,9.24
2024-01-24T06:09:31.074Z,7.94
2024-01-24T06:10:52.857Z,12.73
2024-01-24T06:12:14.529Z,11.22
2024-01-24T06:13:35.563Z,9.21
2024-01-24T06:14:58.465Z,8.43
2024-01-24T06:17:42.933Z,10.74
2024-01-24T06:19:04.426Z,8.94
2024-01-24T06:20:26.394Z,9.79
2024-01-24T06:21:50.815Z,6.82
2024-01-24T06:23:14.532Z,6.97
2024-01-24T06:24:36.240Z,7.74
2024-01-24T06:25:58.025Z,7.48
2024-01-24T06:27:19.587Z,9.10
2024-01-24T06:28:40.827Z,11.80
2024-01-24T06:30:18.253Z,15.03
2024-01-24T06:31:25.870Z,10.38
2024-01-24T06:32:47.382Z,13.76
2024-01-24T06:34:08.791Z,14.08
2024-01-24T06:35:30.174Z,7.71
2024-01-24T06:38:04.764Z,6.71
2024-01-24T06:39:26.576Z,7.79
2024-01-24T06:40:48.526Z,5.79
2024-01-24T06:42:10.896Z,9.28
2024-01-24T06:43:32.230Z,11.71
2024-01-24T06:44:54.720Z,7.01
2024-01-24T06:46:16.391Z,10.63
2024-01-24T06:47:37.802Z,7.39
2024-01-24T06:48:59.369Z,15.71
2024-01-24T06:50:20.653Z,5.98
2024-01-24T06:51:42.189Z,8.12
2024-01-24T06:53:03.680Z,11.18
2024-01-24T06:54:26.206Z,5.91
2024-01-24T06:55:47.721Z,6.56
2024-01-24T06:57:09.327Z,5.57
2024-01-24T06:58:30.582Z,6.49
2024-01-24T06:59:52.013Z,4.48
2024-01-24T07:01:13.745Z,5.32
2024-01-24T07:02:35.262Z,4.83
2024-01-24T07:03:56.897Z,5.28
2024-01-24T07:05:18.102Z,4.34
2024-01-24T07:06:42.677Z,4.72
2024-01-24T07:08:04.180Z,4.72
2024-01-24T07:09:25.916Z,4.17
2024-01-24T07:10:47.377Z,4.32
2024-01-24T07:12:08.666Z,5.39
2024-01-24T07:13:30.355Z,5.74
2024-01-24T07:14:53.316Z,4.89
2024-01-24T07:16:15.773Z,6.78
2024-01-24T07:17:37.140Z,4.67
2024-01-24T07:18:58.567Z,4.78
2024-01-24T07:20:21.615Z,4.59
2024-01-24T07:21:42.848Z,6.24
2024-01-24T07:23:04.361Z,6.76
2024-01-24T07:24:26.203Z,4.68
2024-01-24T07:25:49.608Z,8.67
2024-01-24T07:28:33.422Z,6.81
2024-01-24T07:29:54.627Z,4.59
2024-01-24T07:31:17.080Z,4.98
2024-01-24T07:32:38.474Z,6.84
2024-01-24T07:33:59.952Z,5.69
2024-01-24T07:35:21.411Z,5.68
2024-01-24T07:36:43.094Z,7.93
2024-01-24T07:38:04.375Z,5.13
2024-01-24T07:39:25.777Z,6.63
2024-01-24T07:40:47.251Z,5.07
2024-01-24T07:42:08.731Z,4.99
2024-01-24T07:43:30.181Z,5.22
2024-01-24T07:44:51.698Z,5.79
2024-01-24T07:46:13.792Z,6.31
2024-01-24T07:47:35.656Z,5.14
2024-01-24T07:48:58.889Z,7.02
2024-01-24T07:50:21.750Z,4.54
2024-01-24T07:51:43.232Z,4.56
2024-01-24T07:53:04.614Z,5.64
2024-01-24T07:54:26.337Z,7.18
2024-01-24T07:55:55.789Z,8.48
2024-01-24T07:57:11.474Z,10.48
2024-01-24T07:58:33.209Z,6.08
2024-01-24T07:59:55.151Z,7.18
2024-01-24T08:01:16.638Z,7.52
2024-01-24T08:02:37.829Z,6.67
2024-01-24T08:03:59.383Z,6.64
2024-01-24T08:05:21.899Z,11.94
2024-01-24T08:06:44.027Z,6.62
2024-01-24T08:08:05.766Z,7.50
2024-01-24T08:09:26.954Z,7.52
2024-01-24T08:10:48.706Z,7.42
2024-01-24T08:12:10.217Z,7.42
2024-01-24T08:13:33.866Z,7.41
2024-01-24T08:14:55.740Z,7.89
2024-01-24T08:16:18.141Z,5.44
2024-01-24T08:17:39.704Z,8.47
2024-01-24T08:19:00.943Z,7.54
2024-01-24T08:20:23.094Z,7.92
2024-01-24T08:21:44.741Z,10.63
2024-01-24T08:23:07.005Z,5.90
2024-01-24T08:24:28.549Z,7.21
2024-01-24T08:25:51.066Z,6.52
2024-01-24T08:27:12.978Z,5.81
2024-01-24T08:28:34.303Z,9.46
2024-01-24T08:29:56.151Z,7.88
2024-01-24T08:31:17.742Z,11.42
2024-01-24T08:32:39.007Z,9.86
2024-01-24T08:34:00.627Z,7.40
2024-01-24T08:35:22.400Z,6.43
2024-01-24T08:36:44.139Z,6.13
2024-01-24T08:38:05.807Z,9.60
2024-01-24T08:39:27.337Z,5.97
2024-01-24T08:40:49.122Z,4.92
2024-01-24T08:42:10.786Z,14.20
2024-01-24T08:43:33.525Z,3.84
2024-01-24T08:46:06.897Z,3.41
2024-01-24T08:47:28.531Z,3.20
2024-01-24T08:48:50.691Z,4.29
2024-01-24T08:50:14.183Z,2.74
2024-01-24T08:51:35.604Z,4.11
2024-01-24T08:52:58.877Z,4.69
2024-01-24T08:54:20.819Z,5.58
2024-01-24T08:55:42.337Z,4.64
2024-01-24T08:57:04.016Z,4.37
2024-01-24T08:58:25.402Z,6.07
2024-01-24T08:59:46.708Z,3.81
2024-01-24T09:01:08.459Z,3.13
2024-01-24T09:02:30.104Z,4.21
2024-01-24T09:03:51.860Z,4.00
2024-01-24T09:05:13.480Z,2.83
2024-01-24T09:06:38.231Z,2.97
2024-01-24T09:08:00.189Z,3.33
2024-01-24T09:09:21.653Z,4.67
2024-01-24T09:10:43.457Z,3.79
2024-01-24T09:12:05.879Z,3.51
2024-01-24T09:13:27.864Z,5.17
2024-01-24T09:14:49.560Z,3.88
2024-01-24T09:16:11.818Z,3.83
2024-01-24T09:17:33.087Z,3.17
2024-01-24T09:18:54.659Z,2.96
2024-01-24T09:20:17.044Z,3.98
2024-01-24T09:21:39.096Z,5.71
2024-01-24T09:23:00.899Z,4.45
2024-01-24T09:24:22.293Z,3.64
2024-01-24T09:25:43.809Z,4.06
2024-01-24T09:27:05.367Z,3.01
2024-01-24T09:28:26.451Z,3.18
2024-01-24T09:29:47.805Z,4.70
2024-01-24T09:31:09.457Z,3.61
2024-01-24T09:33:41.895Z,3.86
2024-01-24T09:35:04.549Z,5.42
2024-01-24T09:36:26.553Z,3.27
2024-01-24T09:37:47.713Z,3.12
2024-01-24T09:39:11.203Z,4.96
2024-01-24T09:40:32.653Z,5.76
2024-01-24T09:41:53.822Z,3.84
2024-01-24T09:43:15.148Z,4.53
2024-01-24T09:44:36.676Z,3.96
2024-01-24T09:45:57.883Z,5.31
2024-01-24T09:47:21.412Z,4.41
2024-01-24T09:48:44.549Z,3.71
2024-01-24T09:50:06.764Z,4.48
2024-01-24T09:51:30.634Z,2.95
2024-01-24T09:52:55.497Z,5.16
2024-01-24T09:54:16.502Z,4.71
2024-01-24T09:55:40.549Z,3.80
2024-01-24T09:57:02.530Z,4.40
2024-01-24T09:58:25.276Z,4.63
2024-01-24T09:59:46.729Z,4.64
2024-01-24T10:01:11.695Z,6.22
2024-01-24T10:02:33.494Z,7.11
2024-01-24T10:03:55.310Z,5.50
2024-01-24T10:05:17.867Z,5.55
2024-01-24T10:06:39.491Z,5.32
2024-01-24T10:09:12.819Z,5.03
2024-01-24T10:10:34.821Z,3.78
2024-01-24T10:11:56.356Z,4.18
2024-01-24T10:13:17.581Z,4.98
2024-01-24T10:14:39.950Z,5.27
2024-01-24T10:16:01.678Z,3.99
2024-01-24T10:17:23.214Z,4.03
2024-01-24T10:18:44.922Z,4.68
2024-01-24T10:20:09.506Z,4.12
2024-01-24T10:21:31.529Z,4.81
2024-01-24T10:22:54.306Z,3.78
2024-01-24T10:24:15.810Z,3.81
2024-01-24T10:27:05.103Z,3.87
2024-01-24T10:28:27.843Z,6.22
2024-01-24T10:29:50.146Z,4.33
2024-01-24T10:31:12.243Z,4.57
2024-01-24T10:32:35.889Z,5.16
2024-01-24T10:33:57.503Z,3.18
2024-01-24T10:35:19.541Z,4.96
2024-01-24T10:36:44.265Z,5.66
2024-01-24T10:38:06.222Z,4.71
2024-01-24T10:39:27.560Z,6.03
2024-01-24T10:40:51.533Z,4.23
2024-01-24T10:43:23.195Z,5.06
2024-01-24T10:44:45.532Z,5.05
2024-01-24T10:46:06.829Z,5.26
2024-01-24T10:47:30.745Z,6.82
2024-01-24T10:48:52.481Z,7.71
2024-01-24T10:50:18.259Z,7.21
2024-01-24T10:51:39.881Z,6.13
2024-01-24T10:53:02.728Z,6.46
2024-01-24T10:54:24.522Z,6.06
2024-01-24T10:55:45.839Z,5.99
2024-01-24T10:57:07.227Z,5.54
2024-01-24T10:58:29.251Z,7.62
2024-01-24T11:01:04.447Z,6.41
2024-01-24T11:02:26.164Z,8.46
2024-01-24T11:03:48.323Z,6.02
2024-01-24T11:05:13.798Z,6.86
2024-01-24T11:06:40.969Z,10.82
2024-01-24T11:08:11.883Z,5.39
2024-01-24T11:09:52.522Z,4.96
2024-01-24T11:11:19.385Z,3.34
2024-01-24T11:14:04.140Z,6.26
2024-01-24T11:15:29.142Z,4.20
2024-01-24T11:16:50.924Z,6.31
2024-01-24T11:18:28.632Z,7.19
2024-01-24T11:19:53.669Z,6.30
2024-01-24T11:21:23.805Z,5.54
2024-01-24T11:22:45.502Z,3.73
2024-01-24T11:24:07.287Z,6.76
2024-01-24T11:26:50.175Z,4.67
2024-01-24T11:28:16.620Z,6.43
2024-01-24T11:29:38.557Z,4.99
2024-01-24T11:31:00.676Z,7.28
2024-01-24T11:32:48.992Z,4.94
2024-01-24T11:34:12.724Z,5.52
2024-01-24T11:36:52.416Z,6.54
2024-01-24T11:38:28.327Z,6.41
2024-01-24T11:39:49.544Z,5.36
2024-01-24T11:41:23.498Z,5.64
2024-01-24T11:42:54.841Z,4.54
2024-01-24T11:44:16.574Z,6.26
2024-01-24T11:45:39.809Z,6.48
2024-01-24T11:47:01.466Z,7.44
2024-01-24T11:48:23.730Z,4.96
2024-01-24T11:49:49.626Z,5.16
2024-01-24T11:51:14.122Z,5.36
2024-01-24T11:54:00.689Z,5.28
2024-01-24T11:55:24.001Z,4.98
2024-01-24T11:56:45.688Z,9.04
2024-01-24T11:58:07.651Z,5.49
2024-01-24T11:59:28.964Z,4.96
2024-01-24T12:00:50.610Z,5.73
2024-01-24T12:02:12.557Z,4.34
2024-01-24T12:03:34.197Z,5.14
2024-01-24T12:04:56.919Z,3.88
2024-01-24T12:06:19.047Z,7.31
2024-01-24T12:07:40.680Z,5.79
2024-01-24T12:09:02.385Z,5.82
2024-01-24T12:10:24.512Z,5.08
2024-01-24T12:11:46.209Z,4.51
2024-01-24T12:13:07.875Z,5.52
2024-01-24T12:14:29.726Z,5.02
2024-01-24T12:15:52.683Z,5.56
2024-01-24T12:18:36.814Z,5.33
2024-01-24T12:19:58.675Z,7.96
2024-01-24T12:21:21.458Z,5.28
2024-01-24T12:24:05.104Z,5.68
2024-01-24T12:25:28.303Z,7.11
2024-01-24T12:26:52.204Z,7.04
2024-01-24T12:29:35.033Z,7.49
2024-01-24T12:30:57.113Z,6.08
2024-01-24T12:33:36.612Z,8.44
2024-01-24T12:35:00.870Z,5.41
2024-01-24T12:36:23.669Z,5.61
2024-01-24T12:37:46.352Z,7.07
2024-01-24T12:39:08.515Z,7.04
2024-01-24T12:40:31.738Z,5.35
2024-01-24T12:41:53.857Z,6.14
2024-01-24T12:43:16.809Z,5.98
2024-01-24T12:47:14.932Z,2.75
2024-01-24T12:48:37.803Z,4.78
2024-01-24T12:49:59.566Z,3.44
2024-01-24T12:51:22.950Z,3.53
2024-01-24T12:54:05.823Z,4.11
2024-01-24T12:55:30.245Z,4.28
2024-01-24T12:58:16.486Z,4.13
2024-01-24T12:59:38.019Z,4.56
2024-01-24T13:00:59.943Z,5.10
2024-01-24T13:02:21.644Z,3.92
2024-01-24T13:03:43.306Z,3.92
2024-01-24T13:05:07.454Z,4.06
2024-01-24T13:06:30.429Z,4.08
2024-01-24T13:07:51.735Z,3.57
2024-01-24T13:09:13.267Z,4.88
2024-01-24T13:10:34.890Z,3.99
2024-01-24T13:11:57.142Z,3.72
2024-01-24T13:13:19.314Z,4.05
2024-01-24T13:14:40.963Z,4.09
2024-01-24T13:16:04.533Z,3.87
2024-01-24T13:17:25.809Z,4.69
2024-01-24T13:18:47.119Z,4.87
2024-01-24T13:20:10.968Z,4.58
2024-01-24T13:21:32.684Z,7.38
2024-01-24T13:22:55.574Z,4.18
2024-01-24T13:24:16.678Z,4.67
2024-01-24T13:25:37.937Z,4.09
2024-01-24T13:26:59.697Z,7.19
2024-01-24T13:28:23.141Z,4.30
2024-01-24T13:29:44.625Z,4.04
2024-01-24T13:31:07.364Z,5.73
2024-01-24T13:33:50.232Z,4.86
2024-01-24T13:35:11.556Z,3.88
2024-01-24T13:36:33.624Z,4.07
2024-01-24T13:37:59.347Z,3.39
2024-01-24T13:39:20.828Z,5.79
2024-01-24T13:40:43.064Z,5.34
2024-01-24T13:42:05.804Z,3.48
2024-01-24T13:43:27.459Z,4.79
2024-01-24T13:44:48.788Z,3.84
2024-01-24T13:46:10.990Z,4.03
2024-01-24T13:47:32.662Z,3.43
2024-01-24T13:48:54.466Z,3.54
2024-01-24T13:50:16.822Z,3.32
2024-01-24T13:51:42.775Z,4.12
2024-01-24T13:53:01.073Z,3.67
2024-01-24T13:54:23.345Z,3.04
2024-01-24T13:55:45.335Z,8.17
2024-01-24T13:57:06.843Z,3.69
2024-01-24T13:58:28.648Z,3.12
2024-01-24T13:59:50.462Z,4.11
2024-01-24T14:01:12.675Z,3.41
2024-01-24T14:02:33.898Z,3.76
2024-01-24T14:03:55.281Z,3.23
2024-01-24T14:05:17.036Z,4.12
2024-01-24T14:06:38.557Z,4.07
2024-01-24T14:07:59.992Z,2.95
2024-01-24T14:09:21.523Z,3.21
2024-01-24T14:10:43.227Z,3.21
2024-01-24T14:12:08.572Z,2.74
2024-01-24T14:13:29.838Z,3.69
2024-01-24T14:14:53.834Z,3.54
2024-01-24T14:16:16.537Z,2.89
2024-01-24T14:17:38.140Z,3.38
2024-01-24T14:18:59.756Z,2.72
2024-01-24T14:20:24.141Z,2.92
2024-01-24T14:21:48.704Z,3.44
2024-01-24T14:23:10.399Z,2.93
2024-01-24T14:24:31.760Z,3.35
2024-01-24T14:25:53.094Z,3.99
2024-01-24T14:27:14.431Z,3.37
2024-01-24T14:28:35.881Z,2.91
2024-01-24T14:29:57.388Z,3.13
2024-01-24T14:31:19.044Z,2.82
2024-01-24T14:32:40.757Z,3.04
2024-01-24T14:34:03.382Z,3.44
2024-01-24T14:35:26.806Z,2.66
2024-01-24T14:36:52.496Z,3.01
2024-01-24T14:39:33.090Z,3.58
2024-01-24T14:40:55.020Z,2.90
2024-01-24T14:42:17.993Z,5.05
2024-01-24T14:43:39.490Z,3.08
2024-01-24T14:45:01.873Z,2.96
2024-01-24T14:46:25.254Z,3.31
2024-01-24T14:47:47.661Z,2.95
2024-01-24T14:49:09.209Z,3.04
2024-01-24T14:50:30.752Z,3.18
2024-01-24T14:51:55.206Z,2.90
2024-01-24T14:53:16.900Z,3.13
2024-01-24T14:54:38.779Z,3.24
2024-01-24T14:55:59.905Z,3.69
2024-01-24T14:57:21.739Z,3.00
2024-01-24T14:58:43.011Z,3.28
2024-01-24T15:00:06.349Z,4.68
2024-01-24T15:01:29.343Z,3.34
2024-01-24T15:02:50.944Z,3.39
2024-01-24T15:04:12.268Z,3.57
2024-01-24T15:05:34.348Z,3.51
2024-01-24T15:06:55.964Z,3.34
2024-01-24T15:08:17.589Z,3.06
2024-01-24T15:09:38.862Z,3.68
2024-01-24T15:11:01.651Z,8.99
2024-01-24T15:12:23.145Z,3.06
2024-01-24T15:13:44.658Z,3.28
2024-01-24T15:15:07.628Z,3.29
2024-01-24T15:16:30.619Z,3.07
2024-01-24T15:17:53.161Z,3.67
2024-01-24T15:19:15.064Z,3.82
2024-01-24T15:20:40.786Z,3.32
2024-01-24T15:22:00.472Z,3.53
2024-01-24T15:23:21.665Z,3.17
2024-01-24T15:24:43.221Z,3.31
2024-01-24T15:26:05.075Z,3.23
2024-01-24T15:27:27.256Z,3.94
2024-01-24T15:28:48.837Z,3.03
2024-01-24T15:30:12.010Z,3.24
2024-01-24T15:31:34.019Z,3.26
2024-01-24T15:32:55.419Z,3.39
2024-01-24T15:34:17.150Z,3.39
2024-01-24T15:35:38.961Z,2.99
2024-01-24T15:37:03.705Z,4.21
2024-01-24T15:38:25.214Z,3.86
2024-01-24T15:39:46.921Z,3.58
2024-01-24T15:41:08.536Z,3.48
2024-01-24T15:54:09.159Z,3.78
2024-01-24T15:56:47.250Z,4.06
2024-01-24T15:58:09.289Z,3.97
2024-01-24T15:59:31.211Z,3.69
2024-01-24T16:00:52.698Z,3.39
2024-01-24T16:02:14.003Z,5.04
2024-01-24T16:03:36.040Z,3.28
2024-01-24T16:04:58.861Z,2.97
2024-01-24T16:06:20.809Z,3.56
2024-01-24T16:07:44.268Z,3.61
2024-01-24T16:10:27.428Z,3.01
2024-01-24T16:11:50.723Z,3.52
2024-01-24T16:13:12.979Z,3.02
2024-01-24T16:14:34.285Z,9.83
2024-01-24T16:15:57.618Z,4.62
2024-01-24T16:17:19.944Z,3.57
2024-01-24T16:18:41.113Z,3.97
2024-01-24T16:20:04.085Z,3.76
2024-01-24T16:22:50.733Z,5.23
2024-01-24T16:24:07.750Z,4.03
2024-01-24T16:25:32.273Z,3.61
2024-01-24T16:26:54.016Z,4.13
2024-01-24T16:28:16.113Z,3.18
2024-01-24T16:29:38.136Z,3.37
2024-01-24T16:31:00.043Z,3.49
2024-01-24T16:32:21.595Z,3.27
2024-01-24T16:33:43.198Z,3.21
2024-01-24T16:35:09.308Z,3.98
2024-01-24T16:36:30.826Z,3.73
2024-01-24T16:37:52.530Z,3.15
2024-01-24T16:39:14.191Z,3.13
2024-01-24T16:40:35.964Z,5.19
2024-01-24T16:43:22.301Z,3.63
2024-01-24T16:44:43.986Z,3.32
2024-01-24T16:46:05.290Z,3.28
2024-01-24T16:47:27.017Z,3.25
2024-01-24T16:48:48.432Z,3.39
2024-01-24T16:50:11.912Z,3.06
2024-01-24T16:51:32.980Z,3.11
2024-01-24T16:52:55.096Z,3.11
2024-01-24T16:54:16.562Z,3.11
2024-01-24T16:55:38.454Z,3.06
2024-01-24T16:56:59.828Z,2.98
2024-01-24T16:58:21.343Z,2.92
2024-01-24T16:59:43.349Z,2.94
2024-01-24T17:01:05.194Z,2.96
2024-01-24T17:02:30.741Z,2.60
2024-01-24T17:03:49.702Z,2.54
2024-01-24T17:05:11.524Z,2.92
2024-01-24T17:06:33.159Z,2.64
2024-01-24T17:07:54.245Z,2.58
2024-01-24T17:09:15.587Z,2.89
2024-01-24T17:10:37.405Z,2.42
2024-01-24T17:11:58.803Z,2.53
2024-01-24T17:13:23.189Z,2.64
2024-01-24T17:14:44.400Z,2.74
2024-01-24T17:16:07.188Z,3.28
2024-01-24T17:17:28.598Z,2.70
2024-01-24T17:18:50.076Z,2.84
2024-01-24T17:21:34.979Z,2.84
2024-01-24T17:22:56.548Z,2.74
2024-01-24T17:24:17.926Z,2.42
2024-01-24T17:25:39.627Z,2.73
2024-01-24T17:27:02.859Z,2.55
2024-01-24T17:28:24.550Z,2.52
2024-01-24T17:29:45.953Z,2.61
2024-01-24T17:31:07.626Z,2.79
2024-01-24T17:32:29.242Z,2.72
2024-01-24T17:33:50.926Z,2.62
2024-01-24T17:35:12.277Z,2.72
2024-01-24T17:36:34.033Z,2.59
2024-01-24T17:37:55.629Z,2.81
2024-01-24T17:39:17.179Z,2.74
2024-01-24T17:40:39.023Z,2.75
2024-01-24T17:42:00.661Z,2.44
2024-01-24T17:43:22.662Z,2.69
2024-01-24T17:44:44.612Z,2.88
2024-01-24T17:46:06.428Z,2.56
2024-01-24T17:47:28.057Z,2.72
2024-01-24T17:48:50.169Z,2.77
2024-01-24T17:50:13.479Z,2.70
2024-01-24T17:51:34.911Z,2.02
2024-01-24T17:52:56.009Z,1.72
2024-01-24T17:54:17.423Z,1.68
2024-01-24T17:55:38.818Z,1.74
2024-01-24T17:57:02.656Z,1.85
2024-01-24T17:58:24.312Z,1.70
2024-01-24T17:59:45.833Z,2.29
2024-01-24T18:01:07.887Z,2.27
2024-01-24T18:02:31.352Z,1.96
2024-01-24T18:03:55.630Z,1.83
2024-01-24T18:05:17.486Z,1.58
2024-01-24T18:06:38.992Z,1.69
2024-01-24T18:08:00.394Z,2.07
2024-01-24T18:09:21.876Z,1.86
2024-01-24T18:10:44.101Z,2.24
2024-01-24T18:12:06.343Z,1.96
2024-01-24T18:13:27.602Z,1.85
2024-01-24T18:14:49.018Z,2.39
2024-01-24T18:16:13.556Z,1.78
2024-01-24T18:17:34.995Z,1.49
2024-01-24T18:18:56.506Z,1.94
2024-01-24T18:20:18.105Z,1.83
2024-01-24T18:21:39.643Z,1.60
2024-01-24T18:23:01.135Z,1.64
2024-01-24T18:24:22.897Z,1.79
2024-01-24T18:25:44.379Z,1.61
2024-01-24T18:27:05.755Z,1.55
2024-01-24T18:28:27.035Z,2.08
2024-01-24T18:29:48.423Z,1.86
2024-01-24T18:31:10.335Z,1.59
2024-01-24T18:32:31.735Z,1.64
2024-01-24T18:33:53.244Z,1.63
2024-01-24T18:35:15.077Z,2.09
2024-01-24T18:36:36.743Z,1.64
2024-01-24T18:37:58.138Z,2.19
2024-01-24T18:39:19.534Z,1.58
2024-01-24T18:40:40.654Z,1.91
2024-01-24T18:42:01.821Z,1.62
2024-01-24T18:43:24.806Z,1.49
2024-01-24T18:44:46.292Z,2.34
2024-01-24T18:46:11.501Z,1.81
2024-01-24T18:47:34.671Z,2.33
2024-01-24T18:48:56.212Z,1.52
2024-01-24T18:51:39.947Z,1.73
2024-01-24T18:53:01.530Z,1.77
2024-01-24T18:54:22.918Z,1.61
2024-01-24T18:55:47.592Z,1.85
2024-01-24T18:57:10.193Z,1.53
2024-01-24T18:58:34.980Z,1.56
2024-01-24T18:59:57.330Z,1.40
2024-01-24T19:01:19.789Z,1.54
2024-01-24T19:02:43.194Z,2.11
2024-01-24T19:04:04.835Z,2.03
2024-01-24T19:05:34.302Z,1.75
2024-01-24T19:06:50.827Z,1.44
2024-01-24T19:08:12.471Z,1.42